createdAt,value
2022-11-29T00:00:06.983Z,3.23
2022-11-29T00:00:22.338Z,3.22
2022-11-29T00:00:58.331Z,3.22
2022-11-29T00:01:12.010Z,3.21
2022-11-29T00:01:26.593Z,3.21
2022-11-29T00:01:39.779Z,3.20
2022-11-29T00:01:53.541Z,3.21
2022-11-29T00:02:06.253Z,3.21
2022-11-29T00:02:19.013Z,3.21
2022-11-29T00:02:31.887Z,3.20
2022-11-29T00:02:44.548Z,3.20
2022-11-29T00:02:57.329Z,3.20
2022-11-29T00:03:10.074Z,3.20
2022-11-29T00:03:22.756Z,3.20
2022-11-29T00:03:35.479Z,3.21
2022-11-29T00:03:49.355Z,3.21
2022-11-29T00:04:02.498Z,3.20
2022-11-29T00:04:15.017Z,3.21
2022-11-29T00:04:27.866Z,3.23
2022-11-29T00:04:40.547Z,3.23
2022-11-29T00:04:53.235Z,3.22
2022-11-29T00:05:07.831Z,3.23
2022-11-29T00:05:20.381Z,3.22
2022-11-29T00:05:34.543Z,3.22
2022-11-29T00:05:47.075Z,3.20
2022-11-29T00:06:05.725Z,3.21
2022-11-29T00:06:20.581Z,3.20
2022-11-29T00:06:35.870Z,3.20
2022-11-29T00:06:48.580Z,3.20
2022-11-29T00:07:01.149Z,3.21
2022-11-29T00:07:14.243Z,3.20
2022-11-29T00:07:27.505Z,3.21
2022-11-29T00:07:40.396Z,3.22
2022-11-29T00:07:53.122Z,3.20
2022-11-29T00:08:07.804Z,3.20
2022-11-29T00:08:21.999Z,3.20
2022-11-29T00:08:35.357Z,3.21
2022-11-29T00:08:48.570Z,3.21
2022-11-29T00:09:06.269Z,3.22
2022-11-29T00:09:19.099Z,3.21
2022-11-29T00:09:31.704Z,3.21
2022-11-29T00:09:45.248Z,3.25
2022-11-29T00:09:57.788Z,3.25
2022-11-29T00:10:10.940Z,3.24
2022-11-29T00:10:23.572Z,3.23
2022-11-29T00:10:36.984Z,3.22
2022-11-29T00:10:49.972Z,3.21
2022-11-29T00:11:07.352Z,3.21
2022-11-29T00:11:37.476Z,3.22
2022-11-29T00:12:08.360Z,3.21
2022-11-29T00:12:21.977Z,3.20
2022-11-29T00:12:34.513Z,3.21
2022-11-29T00:12:48.646Z,3.21
2022-11-29T00:13:01.220Z,3.20
2022-11-29T00:13:13.804Z,3.19
2022-11-29T00:13:26.645Z,3.19
2022-11-29T00:13:39.624Z,3.18
2022-11-29T00:13:52.351Z,3.19
2022-11-29T00:14:05.739Z,3.19
2022-11-29T00:14:20.774Z,3.19
2022-11-29T00:14:33.400Z,3.20
2022-11-29T00:14:46.223Z,3.19
2022-11-29T00:14:59.106Z,3.19
2022-11-29T00:15:11.933Z,3.17
2022-11-29T00:15:24.480Z,3.19
2022-11-29T00:15:38.428Z,3.19
2022-11-29T00:15:51.017Z,3.19
2022-11-29T00:16:05.523Z,3.18
2022-11-29T00:16:18.571Z,3.20
2022-11-29T00:16:31.339Z,3.19
2022-11-29T00:16:44.302Z,3.19
2022-11-29T00:17:02.258Z,3.19
2022-11-29T00:17:15.315Z,3.19
2022-11-29T00:17:28.164Z,3.18
2022-11-29T00:17:40.804Z,3.20
2022-11-29T00:17:53.477Z,3.25
2022-11-29T00:18:07.465Z,3.24
2022-11-29T00:18:21.075Z,3.23
2022-11-29T00:18:34.311Z,3.22
2022-11-29T00:18:49.319Z,3.18
2022-11-29T00:19:02.506Z,3.19
2022-11-29T00:19:15.039Z,3.18
2022-11-29T00:19:28.195Z,3.17
2022-11-29T00:19:41.832Z,3.17
2022-11-29T00:19:54.451Z,3.16
2022-11-29T00:20:09.070Z,3.17
2022-11-29T00:20:21.811Z,3.16
2022-11-29T00:20:35.480Z,3.16
2022-11-29T00:20:47.992Z,3.16
2022-11-29T00:21:00.812Z,3.16
2022-11-29T00:21:13.383Z,3.17
2022-11-29T00:21:26.086Z,3.16
2022-11-29T00:21:38.687Z,3.16
2022-11-29T00:21:52.550Z,3.15
2022-11-29T00:22:05.356Z,3.18
2022-11-29T00:22:17.916Z,3.17
2022-11-29T00:22:30.543Z,3.18
2022-11-29T00:22:43.096Z,3.18
2022-11-29T00:22:56.652Z,3.17
2022-11-29T00:23:09.187Z,3.18
2022-11-29T00:23:21.861Z,3.20
2022-11-29T00:23:34.428Z,3.20
2022-11-29T00:23:46.975Z,3.19
2022-11-29T00:23:59.506Z,3.19
2022-11-29T00:24:12.277Z,3.20
2022-11-29T00:24:25.901Z,3.19
2022-11-29T00:24:38.463Z,3.19
2022-11-29T00:24:51.318Z,3.19
2022-11-29T00:25:04.678Z,3.19
2022-11-29T00:25:17.295Z,3.19
2022-11-29T00:25:29.970Z,3.18
2022-11-29T00:25:42.516Z,3.18
2022-11-29T00:25:55.058Z,3.19
2022-11-29T00:26:10.136Z,3.19
2022-11-29T00:26:22.727Z,3.18
2022-11-29T00:26:37.056Z,3.20
2022-11-29T00:26:49.762Z,3.21
2022-11-29T00:27:02.648Z,3.19
2022-11-29T00:27:16.246Z,3.19
2022-11-29T00:27:28.770Z,3.19
2022-11-29T00:27:41.295Z,3.19
2022-11-29T00:27:55.258Z,3.18
2022-11-29T00:28:07.770Z,3.19
2022-11-29T00:28:20.344Z,3.19
2022-11-29T00:28:33.301Z,3.18
2022-11-29T00:28:45.930Z,3.19
2022-11-29T00:28:59.536Z,3.18
2022-11-29T00:29:12.932Z,3.19
2022-11-29T00:29:25.573Z,3.18
2022-11-29T00:29:38.179Z,3.19
2022-11-29T00:29:50.716Z,3.19
2022-11-29T00:30:04.092Z,3.18
2022-11-29T00:30:17.405Z,3.18
2022-11-29T00:30:31.046Z,3.18
2022-11-29T00:30:43.664Z,3.19
2022-11-29T00:30:56.217Z,3.18
2022-11-29T00:31:15.245Z,3.18
2022-11-29T00:31:30.397Z,3.18
2022-11-29T00:31:43.766Z,3.18
2022-11-29T00:31:57.350Z,3.17
2022-11-29T00:32:10.084Z,3.17
2022-11-29T00:32:22.750Z,3.18
2022-11-29T00:32:36.154Z,3.17
2022-11-29T00:32:48.740Z,3.18
2022-11-29T00:33:03.143Z,3.17
2022-11-29T00:33:15.684Z,3.19
2022-11-29T00:33:28.309Z,3.19
2022-11-29T00:33:41.861Z,3.19
2022-11-29T00:33:56.439Z,3.20
2022-11-29T00:34:11.275Z,3.22
2022-11-29T00:34:23.920Z,3.22
2022-11-29T00:34:37.038Z,3.22
2022-11-29T00:34:50.620Z,3.22
2022-11-29T00:35:09.322Z,3.23
2022-11-29T00:35:22.392Z,3.23
2022-11-29T00:35:34.982Z,3.24
2022-11-29T00:35:47.526Z,3.24
2022-11-29T00:36:01.518Z,3.23
2022-11-29T00:36:15.014Z,3.24
2022-11-29T00:36:29.423Z,3.24
2022-11-29T00:36:42.038Z,3.24
2022-11-29T00:36:54.755Z,3.24
2022-11-29T00:37:07.548Z,3.23
2022-11-29T00:37:20.094Z,3.23
2022-11-29T00:37:32.661Z,3.22
2022-11-29T00:37:46.205Z,3.23
2022-11-29T00:37:58.982Z,3.22
2022-11-29T00:38:11.555Z,3.24
2022-11-29T00:38:24.186Z,3.23
2022-11-29T00:38:36.987Z,3.24
2022-11-29T00:38:49.832Z,3.23
2022-11-29T00:39:03.483Z,3.23
2022-11-29T00:39:17.198Z,3.24
2022-11-29T00:39:30.022Z,3.23
2022-11-29T00:39:42.564Z,3.23
2022-11-29T00:39:55.145Z,3.23
2022-11-29T00:40:08.952Z,3.23
2022-11-29T00:40:22.776Z,3.22
2022-11-29T00:40:35.332Z,3.22
2022-11-29T00:40:51.886Z,3.22
2022-11-29T00:41:04.902Z,3.23
2022-11-29T00:41:17.545Z,3.21
2022-11-29T00:41:30.134Z,3.22
2022-11-29T00:41:43.739Z,3.20
2022-11-29T00:41:56.477Z,3.21
2022-11-29T00:42:09.050Z,3.21
2022-11-29T00:42:21.661Z,3.21
2022-11-29T00:42:34.219Z,3.22
2022-11-29T00:42:46.789Z,3.21
2022-11-29T00:43:01.056Z,3.20
2022-11-29T00:43:14.610Z,3.21
2022-11-29T00:43:27.307Z,3.19
2022-11-29T00:43:40.114Z,3.19
2022-11-29T00:43:52.846Z,3.21
2022-11-29T00:44:05.523Z,3.20
2022-11-29T00:44:20.335Z,3.21
2022-11-29T00:44:34.384Z,3.21
2022-11-29T00:44:47.082Z,3.21
2022-11-29T00:44:59.752Z,3.21
2022-11-29T00:45:12.374Z,3.20
2022-11-29T00:45:24.992Z,3.20
2022-11-29T00:45:37.650Z,3.21
2022-11-29T00:45:50.305Z,3.21
2022-11-29T00:46:04.762Z,3.19
2022-11-29T00:46:18.385Z,3.20
2022-11-29T00:46:30.993Z,3.20
2022-11-29T00:46:43.558Z,3.19
2022-11-29T00:46:56.164Z,3.19
2022-11-29T00:47:08.710Z,3.19
2022-11-29T00:47:21.541Z,3.19
2022-11-29T00:47:35.134Z,3.18
2022-11-29T00:47:47.702Z,3.19
2022-11-29T00:48:00.400Z,3.20
2022-11-29T00:48:12.936Z,3.21
2022-11-29T00:48:25.575Z,3.20
2022-11-29T00:48:38.336Z,3.20
2022-11-29T00:48:51.922Z,3.19
2022-11-29T00:49:04.968Z,3.20
2022-11-29T00:49:18.027Z,3.19
2022-11-29T00:49:30.582Z,3.24
2022-11-29T00:49:43.330Z,3.23
2022-11-29T00:49:55.895Z,3.23
2022-11-29T00:50:08.905Z,3.23
2022-11-29T00:50:22.570Z,3.22
2022-11-29T00:50:35.168Z,3.21
2022-11-29T00:50:47.814Z,3.20
2022-11-29T00:51:00.862Z,3.20
2022-11-29T00:51:13.600Z,3.21
2022-11-29T00:51:26.257Z,3.19
2022-11-29T00:51:39.824Z,3.19
2022-11-29T00:51:52.703Z,3.18
2022-11-29T00:52:05.720Z,3.20
2022-11-29T00:52:18.375Z,3.22
2022-11-29T00:52:30.964Z,3.21
2022-11-29T00:52:43.753Z,3.19
2022-11-29T00:52:56.322Z,3.21
2022-11-29T00:53:08.856Z,3.19
2022-11-29T00:53:22.522Z,3.20
2022-11-29T00:53:36.196Z,3.18
2022-11-29T00:53:48.884Z,3.19
2022-11-29T00:54:01.522Z,3.18
2022-11-29T00:54:14.131Z,3.18
2022-11-29T00:54:26.749Z,3.17
2022-11-29T00:54:39.430Z,3.17
2022-11-29T00:54:52.064Z,3.16
2022-11-29T00:55:06.511Z,3.17
2022-11-29T00:55:19.126Z,3.16
2022-11-29T00:55:31.672Z,3.16
2022-11-29T00:55:44.404Z,3.17
2022-11-29T00:55:56.993Z,3.17
2022-11-29T00:56:11.284Z,3.17
2022-11-29T00:56:24.452Z,3.18
2022-11-29T00:56:38.090Z,3.18
2022-11-29T00:56:50.675Z,3.18
2022-11-29T00:57:03.195Z,3.18
2022-11-29T00:57:15.724Z,3.19
2022-11-29T00:57:28.274Z,3.18
2022-11-29T00:57:40.998Z,3.17
2022-11-29T00:57:54.508Z,3.18
2022-11-29T00:58:08.470Z,3.18
2022-11-29T00:58:21.312Z,3.18
2022-11-29T00:58:34.229Z,3.17
2022-11-29T00:58:48.546Z,3.18
2022-11-29T00:59:02.072Z,3.18
2022-11-29T00:59:14.649Z,3.17
2022-11-29T00:59:27.198Z,3.18
2022-11-29T00:59:39.760Z,3.17
2022-11-29T00:59:52.307Z,3.16
2022-11-29T01:00:06.438Z,3.17
2022-11-29T01:00:20.506Z,3.19
2022-11-29T01:00:33.097Z,3.20
2022-11-29T01:00:45.982Z,3.20
2022-11-29T01:00:58.956Z,3.20
2022-11-29T01:01:11.830Z,3.19
2022-11-29T01:01:24.610Z,3.18
2022-11-29T01:01:38.270Z,3.17
2022-11-29T01:01:50.912Z,3.17
2022-11-29T01:02:03.634Z,3.17
2022-11-29T01:02:16.338Z,3.16
2022-11-29T01:02:29.007Z,3.17
2022-11-29T01:02:41.759Z,3.15
2022-11-29T01:02:55.436Z,3.14
2022-11-29T01:03:08.000Z,3.20
2022-11-29T01:03:20.758Z,3.18
2022-11-29T01:03:33.349Z,3.19
2022-11-29T01:03:45.964Z,3.18
2022-11-29T01:04:01.494Z,3.17
2022-11-29T01:04:14.240Z,3.16
2022-11-29T01:04:26.817Z,3.17
2022-11-29T01:04:39.407Z,3.17
2022-11-29T01:04:51.993Z,3.17
2022-11-29T01:05:05.088Z,3.17
2022-11-29T01:05:18.120Z,3.16
2022-11-29T01:05:31.558Z,3.17
2022-11-29T01:05:45.172Z,3.17
2022-11-29T01:06:01.183Z,3.16
2022-11-29T01:06:15.440Z,3.15
2022-11-29T01:06:28.234Z,3.13
2022-11-29T01:06:40.816Z,3.13
2022-11-29T01:06:53.639Z,3.13
2022-11-29T01:07:07.192Z,3.13
2022-11-29T01:07:19.757Z,3.12
2022-11-29T01:07:32.346Z,3.11
2022-11-29T01:07:44.972Z,3.11
2022-11-29T01:07:57.857Z,3.13
2022-11-29T01:08:11.516Z,3.14
2022-11-29T01:08:24.054Z,3.14
2022-11-29T01:08:37.538Z,3.14
2022-11-29T01:08:51.306Z,3.15
2022-11-29T01:09:04.503Z,3.15
2022-11-29T01:09:17.096Z,3.14
2022-11-29T01:09:29.932Z,3.13
2022-11-29T01:09:42.545Z,3.12
2022-11-29T01:09:55.088Z,3.11
2022-11-29T01:10:08.547Z,3.10
2022-11-29T01:10:22.168Z,3.10
2022-11-29T01:10:34.858Z,3.10
2022-11-29T01:10:47.474Z,3.09
2022-11-29T01:11:05.575Z,3.08
2022-11-29T01:11:22.922Z,3.09
2022-11-29T01:11:35.956Z,3.09
2022-11-29T01:11:50.330Z,3.08
2022-11-29T01:12:02.929Z,3.08
2022-11-29T01:12:15.543Z,3.08
2022-11-29T01:12:28.197Z,3.07
2022-11-29T01:12:40.858Z,3.09
2022-11-29T01:12:53.573Z,3.09
2022-11-29T01:13:08.932Z,3.09
2022-11-29T01:13:21.458Z,3.08
2022-11-29T01:13:34.402Z,3.09
2022-11-29T01:13:48.713Z,3.09
2022-11-29T01:14:02.753Z,3.07
2022-11-29T01:14:15.441Z,3.05
2022-11-29T01:14:28.172Z,3.06
2022-11-29T01:14:40.732Z,3.06
2022-11-29T01:14:53.352Z,3.06
2022-11-29T01:15:07.633Z,3.06
2022-11-29T01:15:20.267Z,3.06
2022-11-29T01:15:34.032Z,3.06
2022-11-29T01:15:46.616Z,3.06
2022-11-29T01:15:59.415Z,3.05
2022-11-29T01:16:13.544Z,3.06
2022-11-29T01:16:27.383Z,3.05
2022-11-29T01:16:40.123Z,3.05
2022-11-29T01:16:53.696Z,3.05
2022-11-29T01:17:06.404Z,3.06
2022-11-29T01:17:19.005Z,3.05
2022-11-29T01:17:31.675Z,3.05
2022-11-29T01:17:44.327Z,3.06
2022-11-29T01:17:56.933Z,3.06
2022-11-29T01:18:10.496Z,3.07
2022-11-29T01:18:23.592Z,3.07
2022-11-29T01:18:37.264Z,3.09
2022-11-29T01:18:49.860Z,3.07
2022-11-29T01:19:02.834Z,3.07
2022-11-29T01:19:15.494Z,3.07
2022-11-29T01:19:28.124Z,3.06
2022-11-29T01:19:45.242Z,3.08
2022-11-29T01:20:01.914Z,3.06
2022-11-29T01:20:14.857Z,3.06
2022-11-29T01:20:27.652Z,3.06
2022-11-29T01:20:40.210Z,3.07
2022-11-29T01:20:57.916Z,3.06
2022-11-29T01:21:14.878Z,3.06
2022-11-29T01:21:27.610Z,3.06
2022-11-29T01:21:40.212Z,3.05
2022-11-29T01:21:52.764Z,3.04
2022-11-29T01:22:05.367Z,3.04
2022-11-29T01:22:18.602Z,3.03
2022-11-29T01:22:31.503Z,3.05
2022-11-29T01:22:44.095Z,3.05
2022-11-29T01:22:57.667Z,3.04
2022-11-29T01:23:10.250Z,3.05
2022-11-29T01:23:22.771Z,3.05
2022-11-29T01:23:36.848Z,3.05
2022-11-29T01:23:50.502Z,3.04
2022-11-29T01:24:03.255Z,3.04
2022-11-29T01:24:15.839Z,3.02
2022-11-29T01:24:30.912Z,3.02
2022-11-29T01:24:43.703Z,3.01
2022-11-29T01:24:56.504Z,3.01
2022-11-29T01:25:11.256Z,3.01
2022-11-29T01:25:23.914Z,3.01
2022-11-29T01:25:36.520Z,3.01
2022-11-29T01:25:56.547Z,3.00
2022-11-29T01:26:13.218Z,3.00
2022-11-29T01:26:28.806Z,3.01
2022-11-29T01:26:41.394Z,2.99
2022-11-29T01:26:54.223Z,3.00
2022-11-29T01:27:06.784Z,3.00
2022-11-29T01:27:19.359Z,3.00
2022-11-29T01:27:32.513Z,3.00
2022-11-29T01:27:45.476Z,2.99
2022-11-29T01:27:59.027Z,2.99
2022-11-29T01:28:12.950Z,2.99
2022-11-29T01:28:25.548Z,2.98
2022-11-29T01:28:39.125Z,2.98
2022-11-29T01:28:53.627Z,3.00
2022-11-29T01:29:07.843Z,2.99
2022-11-29T01:29:20.447Z,2.98
2022-11-29T01:29:33.006Z,2.97
2022-11-29T01:29:45.541Z,2.97
2022-11-29T01:29:58.184Z,2.97
2022-11-29T01:30:11.499Z,2.98
2022-11-29T01:30:24.160Z,2.98
2022-11-29T01:30:38.070Z,2.98
2022-11-29T01:30:50.737Z,2.98
2022-11-29T01:31:08.685Z,2.98
2022-11-29T01:31:23.640Z,2.98
2022-11-29T01:31:36.534Z,2.98
2022-11-29T01:31:49.107Z,2.99
2022-11-29T01:32:01.675Z,2.98
2022-11-29T01:32:14.469Z,2.98
2022-11-29T01:32:28.125Z,2.98
2022-11-29T01:32:40.653Z,2.99
2022-11-29T01:32:53.384Z,2.99
2022-11-29T01:33:05.962Z,2.98
2022-11-29T01:33:18.531Z,2.99
2022-11-29T01:33:31.139Z,2.99
2022-11-29T01:33:43.801Z,3.00
2022-11-29T01:33:58.921Z,3.00
2022-11-29T01:34:11.592Z,3.00
2022-11-29T01:34:24.162Z,3.00
2022-11-29T01:34:37.512Z,2.98
2022-11-29T01:34:50.326Z,2.98
2022-11-29T01:35:02.933Z,2.97
2022-11-29T01:35:15.778Z,2.97
2022-11-29T01:35:29.333Z,2.96
2022-11-29T01:35:47.548Z,2.96
2022-11-29T01:36:00.405Z,2.96
2022-11-29T01:36:14.462Z,2.95
2022-11-29T01:36:29.143Z,2.97
2022-11-29T01:36:41.718Z,2.97
2022-11-29T01:36:54.242Z,2.97
2022-11-29T01:37:06.832Z,2.97
2022-11-29T01:37:19.370Z,2.96
2022-11-29T01:37:33.423Z,2.95
2022-11-29T01:37:45.977Z,2.95
2022-11-29T01:37:58.534Z,2.95
2022-11-29T01:38:11.120Z,2.95
2022-11-29T01:38:23.796Z,2.95
2022-11-29T01:38:36.865Z,2.95
2022-11-29T01:38:49.562Z,2.95
2022-11-29T01:39:05.435Z,2.95
2022-11-29T01:39:18.059Z,2.96
2022-11-29T01:39:30.913Z,2.97
2022-11-29T01:39:43.609Z,2.97
2022-11-29T01:39:56.468Z,2.97
2022-11-29T01:40:09.795Z,2.96
2022-11-29T01:40:22.573Z,2.97
2022-11-29T01:40:35.214Z,2.94
2022-11-29T01:40:57.617Z,2.93
2022-11-29T01:41:16.000Z,2.93
2022-11-29T01:41:31.318Z,2.93
2022-11-29T01:41:43.857Z,2.93
2022-11-29T01:41:56.660Z,2.92
2022-11-29T01:42:10.741Z,2.94
2022-11-29T01:42:23.605Z,2.93
2022-11-29T01:42:37.138Z,2.93
2022-11-29T01:42:49.709Z,2.92
2022-11-29T01:43:02.253Z,2.92
2022-11-29T01:43:18.457Z,2.93
2022-11-29T01:43:31.904Z,2.92
2022-11-29T01:43:57.059Z,2.95
2022-11-29T01:44:44.176Z,2.93
2022-11-29T01:45:08.187Z,2.94
2022-11-29T01:45:23.844Z,2.93
2022-11-29T01:45:38.435Z,2.94
2022-11-29T01:45:51.297Z,2.93
2022-11-29T01:46:05.712Z,2.92
2022-11-29T01:46:18.311Z,2.92
2022-11-29T01:46:33.544Z,2.94
2022-11-29T01:46:47.197Z,2.94
2022-11-29T01:46:59.772Z,2.93
2022-11-29T01:47:12.886Z,2.95
2022-11-29T01:47:25.442Z,2.92
2022-11-29T01:47:43.910Z,2.92
2022-11-29T01:47:59.125Z,2.93
2022-11-29T01:48:14.419Z,2.91
2022-11-29T01:48:31.165Z,2.91
2022-11-29T01:48:43.992Z,2.91
2022-11-29T01:49:00.509Z,2.91
2022-11-29T01:49:18.456Z,2.91
2022-11-29T01:49:35.840Z,2.89
2022-11-29T01:49:50.085Z,2.90
2022-11-29T01:50:03.207Z,2.92
2022-11-29T01:50:16.472Z,2.93
2022-11-29T01:50:29.040Z,2.95
2022-11-29T01:50:42.604Z,2.94
2022-11-29T01:50:59.449Z,2.94
2022-11-29T01:51:13.157Z,2.92
2022-11-29T01:51:28.153Z,2.92
2022-11-29T01:51:44.856Z,2.91
2022-11-29T01:52:02.194Z,2.91
2022-11-29T01:52:19.642Z,2.89
2022-11-29T01:52:33.384Z,2.89
2022-11-29T01:52:47.756Z,2.89
2022-11-29T01:53:00.772Z,2.89
2022-11-29T01:53:15.178Z,2.88
2022-11-29T01:53:28.480Z,2.87
2022-11-29T01:53:41.292Z,2.85
2022-11-29T01:53:55.256Z,2.85
2022-11-29T01:54:11.128Z,2.85
2022-11-29T01:54:23.901Z,2.85
2022-11-29T01:54:41.019Z,2.83
2022-11-29T01:54:58.519Z,2.82
2022-11-29T01:55:11.488Z,2.83
2022-11-29T01:55:24.359Z,2.81
2022-11-29T01:55:41.666Z,2.81
2022-11-29T01:56:01.609Z,2.81
2022-11-29T01:56:16.108Z,2.81
2022-11-29T01:56:30.454Z,2.81
2022-11-29T01:56:45.954Z,2.82
2022-11-29T01:56:59.682Z,2.81
2022-11-29T01:57:13.432Z,2.80
2022-11-29T01:57:27.069Z,2.79
2022-11-29T01:57:42.681Z,2.79
2022-11-29T01:57:55.270Z,2.78
2022-11-29T01:58:09.030Z,2.78
2022-11-29T01:58:23.579Z,2.78
2022-11-29T01:58:36.592Z,2.77
2022-11-29T01:58:49.157Z,2.78
2022-11-29T01:59:04.452Z,2.79
2022-11-29T01:59:21.618Z,2.78
2022-11-29T01:59:36.555Z,2.78
2022-11-29T01:59:52.034Z,2.80
2022-11-29T02:00:08.868Z,2.80
2022-11-29T02:00:21.796Z,2.78
2022-11-29T02:00:35.012Z,2.79
2022-11-29T02:00:48.412Z,2.78
2022-11-29T02:01:02.555Z,2.81
2022-11-29T02:01:15.668Z,2.81
2022-11-29T02:01:28.406Z,2.81
2022-11-29T02:01:41.253Z,2.81
2022-11-29T02:01:59.416Z,2.81
2022-11-29T02:02:15.190Z,2.80
2022-11-29T02:02:33.340Z,2.78
2022-11-29T02:02:52.052Z,2.76
2022-11-29T02:03:10.309Z,2.77
2022-11-29T02:03:22.898Z,2.75
2022-11-29T02:03:35.503Z,2.78
2022-11-29T02:03:48.128Z,2.77
2022-11-29T02:04:00.816Z,2.76
2022-11-29T02:04:16.155Z,2.76
2022-11-29T02:04:31.523Z,2.76
2022-11-29T02:04:45.867Z,2.76
2022-11-29T02:04:59.870Z,2.76
2022-11-29T02:05:14.797Z,2.75
2022-11-29T02:05:28.048Z,2.74
2022-11-29T02:05:44.194Z,2.73
2022-11-29T02:05:56.756Z,2.75
2022-11-29T02:06:09.720Z,2.76
2022-11-29T02:06:23.014Z,2.75
2022-11-29T02:06:36.344Z,2.75
2022-11-29T02:06:49.027Z,2.76
2022-11-29T02:07:02.934Z,2.78
2022-11-29T02:07:16.105Z,2.78
2022-11-29T02:07:29.267Z,2.77
2022-11-29T02:07:44.823Z,2.77
2022-11-29T02:08:01.287Z,2.77
2022-11-29T02:08:17.129Z,2.77
2022-11-29T02:08:39.898Z,2.77
2022-11-29T02:08:53.481Z,2.79
2022-11-29T02:09:16.579Z,2.84
2022-11-29T02:09:30.158Z,2.79
2022-11-29T02:09:42.834Z,2.79
2022-11-29T02:09:55.407Z,2.78
2022-11-29T02:10:08.817Z,2.77
2022-11-29T02:10:28.684Z,2.76
2022-11-29T02:10:55.920Z,2.78
2022-11-29T02:11:40.997Z,2.85
2022-11-29T02:12:17.065Z,2.79
2022-11-29T02:12:40.059Z,2.75
2022-11-29T02:13:01.455Z,2.74
2022-11-29T02:13:24.872Z,2.75
2022-11-29T02:13:51.085Z,2.73
2022-11-29T02:14:17.244Z,2.70
2022-11-29T02:14:54.084Z,2.71
2022-11-29T02:15:19.444Z,2.73
2022-11-29T02:15:41.702Z,2.71
2022-11-29T02:16:02.467Z,2.71
2022-11-29T02:16:25.621Z,2.70
2022-11-29T02:16:55.054Z,2.70
2022-11-29T02:17:17.375Z,2.70
2022-11-29T02:17:36.247Z,2.69
2022-11-29T02:18:02.618Z,2.69
2022-11-29T02:18:22.620Z,2.66
2022-11-29T02:18:45.521Z,2.67
2022-11-29T02:19:12.692Z,2.66
2022-11-29T02:19:57.891Z,2.66
2022-11-29T02:20:35.687Z,2.69
2022-11-29T02:21:16.521Z,2.67
2022-11-29T02:21:41.692Z,2.68
2022-11-29T02:22:03.500Z,2.66
2022-11-29T02:22:22.735Z,2.64
2022-11-29T02:22:41.663Z,2.67
2022-11-29T02:23:00.694Z,2.66
2022-11-29T02:23:56.518Z,2.66
2022-11-29T02:24:34.456Z,2.63
2022-11-29T02:25:02.750Z,2.62
2022-11-29T02:25:40.181Z,2.62
2022-11-29T02:26:03.781Z,2.61
2022-11-29T02:26:30.830Z,2.61
2022-11-29T02:27:12.568Z,2.61
2022-11-29T02:28:14.870Z,2.62
2022-11-29T02:28:45.047Z,2.62
2022-11-29T02:29:15.937Z,2.62
2022-11-29T02:29:46.958Z,2.61
2022-11-29T02:30:20.792Z,2.61
2022-11-29T02:30:55.370Z,2.59
2022-11-29T02:31:38.179Z,2.60
2022-11-29T02:32:49.009Z,2.66
2022-11-29T02:33:37.841Z,2.63
2022-11-29T02:34:28.578Z,2.61
2022-11-29T02:34:58.418Z,2.61
2022-11-29T02:35:23.279Z,2.63
2022-11-29T02:35:56.212Z,2.63
2022-11-29T02:36:40.668Z,2.59
2022-11-29T02:37:14.768Z,2.58
2022-11-29T02:37:42.845Z,2.59
2022-11-29T02:38:22.007Z,2.58
2022-11-29T02:38:58.939Z,2.58
2022-11-29T02:39:49.551Z,2.59
2022-11-29T02:40:17.021Z,2.59
2022-11-29T02:40:46.148Z,2.59
2022-11-29T02:41:19.594Z,2.59
2022-11-29T02:41:50.733Z,2.60
2022-11-29T02:42:25.659Z,2.57
2022-11-29T02:43:04.433Z,2.58
2022-11-29T02:43:32.996Z,2.59
2022-11-29T02:44:25.816Z,2.58
2022-11-29T02:44:58.472Z,2.57
2022-11-29T02:45:16.905Z,2.56
2022-11-29T02:45:53.673Z,2.57
2022-11-29T02:46:21.987Z,2.56
2022-11-29T02:46:49.808Z,2.56
2022-11-29T02:47:15.645Z,2.55
2022-11-29T02:47:37.808Z,2.54
2022-11-29T02:48:01.495Z,2.54
2022-11-29T02:48:33.243Z,2.53
2022-11-29T02:48:55.595Z,2.53
2022-11-29T02:49:16.683Z,2.54
2022-11-29T02:49:45.788Z,2.52
2022-11-29T02:50:19.380Z,2.53
2022-11-29T02:50:39.037Z,2.54
2022-11-29T02:50:58.055Z,2.52
2022-11-29T02:51:16.045Z,2.53
2022-11-29T02:51:39.336Z,2.52
2022-11-29T02:51:58.272Z,2.52
2022-11-29T02:52:17.579Z,2.53
2022-11-29T02:52:36.422Z,2.53
2022-11-29T02:53:00.580Z,2.51
2022-11-29T02:53:18.742Z,2.53
2022-11-29T02:53:38.320Z,2.58
2022-11-29T02:53:56.077Z,2.60
2022-11-29T02:54:17.459Z,2.56
2022-11-29T02:54:40.098Z,2.55
2022-11-29T02:54:58.562Z,2.54
2022-11-29T02:55:20.053Z,2.53
2022-11-29T02:55:38.604Z,2.50
2022-11-29T02:56:00.055Z,2.50
2022-11-29T02:56:23.357Z,2.50
2022-11-29T02:56:42.229Z,2.48
2022-11-29T02:56:59.702Z,2.48
2022-11-29T02:57:23.928Z,2.47
2022-11-29T02:57:43.422Z,2.47
2022-11-29T02:58:02.283Z,2.45
2022-11-29T02:58:26.369Z,2.44
2022-11-29T02:58:47.180Z,2.46
2022-11-29T02:59:05.346Z,2.44
2022-11-29T02:59:34.839Z,2.44
2022-11-29T02:59:58.239Z,2.45
2022-11-29T03:00:15.045Z,2.44
2022-11-29T03:00:28.508Z,2.44
2022-11-29T03:00:49.504Z,2.43
2022-11-29T03:01:10.634Z,2.43
2022-11-29T03:01:31.253Z,2.46
2022-11-29T03:01:53.437Z,2.44
2022-11-29T03:02:18.005Z,2.45
2022-11-29T03:02:36.823Z,2.45
2022-11-29T03:02:56.905Z,2.45
2022-11-29T03:03:19.439Z,2.45
2022-11-29T03:03:40.076Z,2.45
2022-11-29T03:04:02.848Z,2.46
2022-11-29T03:04:26.061Z,2.46
2022-11-29T03:04:45.606Z,2.47
2022-11-29T03:05:10.675Z,2.49
2022-11-29T03:05:29.862Z,2.48
2022-11-29T03:05:51.045Z,2.48
2022-11-29T03:06:13.821Z,2.48
2022-11-29T03:06:39.711Z,2.46
2022-11-29T03:07:01.869Z,2.58
2022-11-29T03:07:24.019Z,2.56
2022-11-29T03:07:45.267Z,2.52
2022-11-29T03:08:07.216Z,2.51
2022-11-29T03:08:32.015Z,2.49
2022-11-29T03:08:53.892Z,2.49
2022-11-29T03:09:12.562Z,2.48
2022-11-29T03:09:36.291Z,2.47
2022-11-29T03:09:57.679Z,2.47
2022-11-29T03:10:19.729Z,2.45
2022-11-29T03:10:39.424Z,2.43
2022-11-29T03:11:01.084Z,2.41
2022-11-29T03:11:20.633Z,2.42
2022-11-29T03:11:42.231Z,2.41
2022-11-29T03:12:04.064Z,2.42
2022-11-29T03:12:29.438Z,2.43
2022-11-29T03:12:46.430Z,2.42
2022-11-29T03:13:00.237Z,2.42
2022-11-29T03:13:21.408Z,2.41
2022-11-29T03:13:45.771Z,2.39
2022-11-29T03:14:14.661Z,2.39
2022-11-29T03:14:31.180Z,2.40
2022-11-29T03:14:55.440Z,2.39
2022-11-29T03:15:22.728Z,2.37
2022-11-29T03:15:41.766Z,2.37
2022-11-29T03:16:03.173Z,2.37
2022-11-29T03:16:29.903Z,2.39
2022-11-29T03:16:51.158Z,2.38
2022-11-29T03:17:13.982Z,2.39
2022-11-29T03:17:40.802Z,2.37
2022-11-29T03:18:03.753Z,2.36
2022-11-29T03:18:33.539Z,2.38
2022-11-29T03:19:00.162Z,2.37
2022-11-29T03:19:41.220Z,2.37
2022-11-29T03:20:07.978Z,2.35
2022-11-29T03:20:28.687Z,2.34
2022-11-29T03:20:55.661Z,2.35
2022-11-29T03:21:18.290Z,2.36
2022-11-29T03:21:41.991Z,2.35
2022-11-29T03:22:05.667Z,2.35
2022-11-29T03:22:29.657Z,2.36
2022-11-29T03:22:47.238Z,2.35
2022-11-29T03:23:14.237Z,2.36
2022-11-29T03:23:34.931Z,2.35
2022-11-29T03:23:50.578Z,2.36
2022-11-29T03:24:09.419Z,2.34
2022-11-29T03:24:28.895Z,2.35
2022-11-29T03:24:48.217Z,2.34
2022-11-29T03:25:06.534Z,2.34
2022-11-29T03:25:28.919Z,2.33
2022-11-29T03:25:46.175Z,2.34
2022-11-29T03:26:05.063Z,2.34
2022-11-29T03:26:21.395Z,2.33
2022-11-29T03:26:40.196Z,2.34
2022-11-29T03:27:00.617Z,2.34
2022-11-29T03:27:21.325Z,2.36
2022-11-29T03:27:41.012Z,2.35
2022-11-29T03:28:06.576Z,2.36
2022-11-29T03:28:23.479Z,2.37
2022-11-29T03:28:42.582Z,2.35
2022-11-29T03:29:07.109Z,2.34
2022-11-29T03:29:27.027Z,2.34
2022-11-29T03:29:46.891Z,2.35
2022-11-29T03:30:03.515Z,2.35
2022-11-29T03:30:19.229Z,2.35
2022-11-29T03:30:34.541Z,2.35
2022-11-29T03:30:54.490Z,2.35
2022-11-29T03:31:14.970Z,2.36
2022-11-29T03:31:34.335Z,2.35
2022-11-29T03:31:53.079Z,2.34
2022-11-29T03:32:12.656Z,2.36
2022-11-29T03:32:31.243Z,2.39
2022-11-29T03:32:52.360Z,2.38
2022-11-29T03:33:13.105Z,2.37
2022-11-29T03:33:36.921Z,2.36
2022-11-29T03:34:00.205Z,2.35
2022-11-29T03:34:20.852Z,2.34
2022-11-29T03:34:54.316Z,2.34
2022-11-29T03:35:17.008Z,2.33
2022-11-29T03:35:37.687Z,2.32
2022-11-29T03:35:56.971Z,2.34
2022-11-29T03:36:18.127Z,2.34
2022-11-29T03:36:41.619Z,2.32
2022-11-29T03:37:04.435Z,2.31
2022-11-29T03:37:20.249Z,2.32
2022-11-29T03:37:43.111Z,2.31
2022-11-29T03:38:02.541Z,2.30
2022-11-29T03:38:21.196Z,2.33
2022-11-29T03:38:40.397Z,2.32
2022-11-29T03:38:58.872Z,2.32
2022-11-29T03:39:18.773Z,2.32
2022-11-29T03:39:39.992Z,2.32
2022-11-29T03:39:59.806Z,2.32
2022-11-29T03:40:15.209Z,2.34
2022-11-29T03:40:33.401Z,2.31
2022-11-29T03:40:55.049Z,2.31
2022-11-29T03:41:18.560Z,2.31
2022-11-29T03:41:37.750Z,2.29
2022-11-29T03:41:56.366Z,2.29
2022-11-29T03:42:14.164Z,2.29
2022-11-29T03:42:33.017Z,2.29
2022-11-29T03:42:51.807Z,2.30
2022-11-29T03:43:09.947Z,2.32
2022-11-29T03:43:30.592Z,2.32
2022-11-29T03:43:48.063Z,2.31
2022-11-29T03:44:09.684Z,2.31
2022-11-29T03:44:27.139Z,2.30
2022-11-29T03:44:47.819Z,2.30